sensor_id;sensor_type;location;lat;lon;timestamp;P1;durP1;ratioP1;P2;durP2;ratioP2
70899;SDS011;67902;52.154;5.430;2023-03-19T00:02:03;7.55;;;2.13;;
70899;SDS011;67902;52.154;5.430;2023-03-19T00:04:42;5.50;;;1.92;;
70899;SDS011;67902;52.154;5.430;2023-03-19T00:07:09;6.00;;;2.30;;
70899;SDS011;67902;52.154;5.430;2023-03-19T00:09:40;6.45;;;2.30;;
70899;SDS011;67902;52.154;5.430;2023-03-19T00:12:07;7.70;;;2.40;;
70899;SDS011;67902;52.154;5.430;2023-03-19T00:14:34;5.80;;;2.35;;
70899;SDS011;67902;52.154;5.430;2023-03-19T00:17:00;6.70;;;2.28;;
70899;SDS011;67902;52.154;5.430;2023-03-19T00:19:27;6.75;;;2.40;;
70899;SDS011;67902;52.154;5.430;2023-03-19T00:21:53;6.68;;;2.60;;
70899;SDS011;67902;52.154;5.430;2023-03-19T00:26:47;6.32;;;2.30;;
70899;SDS011;67902;52.154;5.430;2023-03-19T00:29:14;7.38;;;2.80;;
70899;SDS011;67902;52.154;5.430;2023-03-19T00:31:41;6.28;;;2.10;;
70899;SDS011;67902;52.154;5.430;2023-03-19T00:34:08;8.18;;;3.00;;
70899;SDS011;67902;52.154;5.430;2023-03-19T00:36:35;5.78;;;2.35;;
70899;SDS011;67902;52.154;5.430;2023-03-19T00:39:02;7.72;;;2.72;;
70899;SDS011;67902;52.154;5.430;2023-03-19T00:41:29;6.85;;;2.20;;
70899;SDS011;67902;52.154;5.430;2023-03-19T00:43:57;8.48;;;2.33;;
70899;SDS011;67902;52.154;5.430;2023-03-19T00:46:23;10.73;;;2.58;;
70899;SDS011;67902;52.154;5.430;2023-03-19T00:48:50;7.47;;;2.63;;
70899;SDS011;67902;52.154;5.430;2023-03-19T00:51:21;6.72;;;2.50;;
70899;SDS011;67902;52.154;5.430;2023-03-19T00:53:48;7.75;;;2.60;;
70899;SDS011;67902;52.154;5.430;2023-03-19T00:56:16;6.43;;;2.70;;
70899;SDS011;67902;52.154;5.430;2023-03-19T00:58:45;7.18;;;3.08;;
70899;SDS011;67902;52.154;5.430;2023-03-19T01:01:14;8.15;;;2.70;;
70899;SDS011;67902;52.154;5.430;2023-03-19T01:03:43;6.38;;;2.40;;
70899;SDS011;67902;52.154;5.430;2023-03-19T01:06:11;7.85;;;2.80;;
70899;SDS011;67902;52.154;5.430;2023-03-19T01:08:38;8.75;;;2.83;;
70899;SDS011;67902;52.154;5.430;2023-03-19T01:11:05;6.72;;;2.50;;
70899;SDS011;67902;52.154;5.430;2023-03-19T01:13:34;6.53;;;2.70;;
70899;SDS011;67902;52.154;5.430;2023-03-19T01:16:01;7.15;;;2.95;;
70899;SDS011;67902;52.154;5.430;2023-03-19T01:18:28;6.45;;;2.60;;
70899;SDS011;67902;52.154;5.430;2023-03-19T01:20:55;6.70;;;2.50;;
70899;SDS011;67902;52.154;5.430;2023-03-19T01:23:21;8.23;;;2.88;;
70899;SDS011;67902;52.154;5.430;2023-03-19T01:25:48;8.73;;;3.10;;
70899;SDS011;67902;52.154;5.430;2023-03-19T01:28:14;8.88;;;2.90;;
70899;SDS011;67902;52.154;5.430;2023-03-19T01:30:41;8.43;;;2.97;;
70899;SDS011;67902;52.154;5.430;2023-03-19T01:33:07;10.02;;;3.22;;
70899;SDS011;67902;52.154;5.430;2023-03-19T01:35:34;7.63;;;3.15;;
70899;SDS011;67902;52.154;5.430;2023-03-19T01:38:00;9.68;;;3.50;;
70899;SDS011;67902;52.154;5.430;2023-03-19T01:40:27;7.55;;;3.20;;
70899;SDS011;67902;52.154;5.430;2023-03-19T01:42:55;8.82;;;3.28;;
70899;SDS011;67902;52.154;5.430;2023-03-19T01:45:38;8.07;;;3.08;;
70899;SDS011;67902;52.154;5.430;2023-03-19T01:48:22;8.07;;;3.38;;
70899;SDS011;67902;52.154;5.430;2023-03-19T01:50:54;8.65;;;3.42;;
70899;SDS011;67902;52.154;5.430;2023-03-19T01:53:23;7.60;;;3.30;;
70899;SDS011;67902;52.154;5.430;2023-03-19T01:55:54;6.93;;;2.97;;
70899;SDS011;67902;52.154;5.430;2023-03-19T01:58:24;8.50;;;3.33;;
70899;SDS011;67902;52.154;5.430;2023-03-19T02:00:52;8.85;;;3.60;;
70899;SDS011;67902;52.154;5.430;2023-03-19T02:03:18;9.55;;;3.70;;
70899;SDS011;67902;52.154;5.430;2023-03-19T02:05:45;7.47;;;3.35;;
70899;SDS011;67902;52.154;5.430;2023-03-19T02:08:14;8.43;;;3.78;;
70899;SDS011;67902;52.154;5.430;2023-03-19T02:10:42;8.45;;;3.42;;
70899;SDS011;67902;52.154;5.430;2023-03-19T02:13:11;9.07;;;3.95;;
70899;SDS011;67902;52.154;5.430;2023-03-19T02:15:38;10.10;;;3.78;;
70899;SDS011;67902;52.154;5.430;2023-03-19T02:18:08;9.23;;;3.60;;
70899;SDS011;67902;52.154;5.430;2023-03-19T02:20:41;8.88;;;3.53;;
70899;SDS011;67902;52.154;5.430;2023-03-19T02:23:34;8.65;;;3.63;;
70899;SDS011;67902;52.154;5.430;2023-03-19T02:26:06;8.70;;;3.28;;
70899;SDS011;67902;52.154;5.430;2023-03-19T02:28:35;10.07;;;3.55;;
70899;SDS011;67902;52.154;5.430;2023-03-19T02:31:07;8.68;;;3.78;;
70899;SDS011;67902;52.154;5.430;2023-03-19T02:33:36;8.25;;;3.80;;
70899;SDS011;67902;52.154;5.430;2023-03-19T02:36:04;9.13;;;3.78;;
70899;SDS011;67902;52.154;5.430;2023-03-19T02:38:36;10.52;;;3.58;;
70899;SDS011;67902;52.154;5.430;2023-03-19T02:41:06;8.05;;;3.75;;
70899;SDS011;67902;52.154;5.430;2023-03-19T02:43:35;8.25;;;3.72;;
70899;SDS011;67902;52.154;5.430;2023-03-19T02:46:09;8.85;;;3.53;;
70899;SDS011;67902;52.154;5.430;2023-03-19T02:48:37;10.00;;;4.45;;
70899;SDS011;67902;52.154;5.430;2023-03-19T02:51:06;8.77;;;3.80;;
70899;SDS011;67902;52.154;5.430;2023-03-19T02:53:33;9.32;;;4.15;;
70899;SDS011;67902;52.154;5.430;2023-03-19T02:56:00;9.60;;;4.32;;
70899;SDS011;67902;52.154;5.430;2023-03-19T02:58:26;10.23;;;4.60;;
70899;SDS011;67902;52.154;5.430;2023-03-19T03:00:53;8.55;;;4.07;;
70899;SDS011;67902;52.154;5.430;2023-03-19T03:03:20;9.93;;;3.88;;
70899;SDS011;67902;52.154;5.430;2023-03-19T03:05:46;12.20;;;4.53;;
70899;SDS011;67902;52.154;5.430;2023-03-19T03:08:13;10.48;;;4.68;;
70899;SDS011;67902;52.154;5.430;2023-03-19T03:10:39;11.25;;;4.32;;
70899;SDS011;67902;52.154;5.430;2023-03-19T03:13:06;9.70;;;4.57;;
70899;SDS011;67902;52.154;5.430;2023-03-19T03:15:32;10.43;;;4.72;;
70899;SDS011;67902;52.154;5.430;2023-03-19T03:17:59;12.35;;;5.22;;
70899;SDS011;67902;52.154;5.430;2023-03-19T03:20:26;11.10;;;4.80;;
70899;SDS011;67902;52.154;5.430;2023-03-19T03:22:52;13.98;;;5.10;;
70899;SDS011;67902;52.154;5.430;2023-03-19T03:25:19;10.15;;;5.00;;
70899;SDS011;67902;52.154;5.430;2023-03-19T03:27:46;11.52;;;5.53;;
70899;SDS011;67902;52.154;5.430;2023-03-19T03:30:12;11.20;;;5.57;;
70899;SDS011;67902;52.154;5.430;2023-03-19T03:32:41;13.05;;;5.35;;
70899;SDS011;67902;52.154;5.430;2023-03-19T03:35:07;13.00;;;5.75;;
70899;SDS011;67902;52.154;5.430;2023-03-19T03:37:35;12.30;;;5.60;;
70899;SDS011;67902;52.154;5.430;2023-03-19T03:40:03;12.25;;;6.10;;
70899;SDS011;67902;52.154;5.430;2023-03-19T03:42:31;13.57;;;6.70;;
70899;SDS011;67902;52.154;5.430;2023-03-19T03:44:58;14.32;;;6.32;;
70899;SDS011;67902;52.154;5.430;2023-03-19T03:47:24;12.50;;;6.43;;
70899;SDS011;67902;52.154;5.430;2023-03-19T03:49:51;16.13;;;6.60;;
70899;SDS011;67902;52.154;5.430;2023-03-19T03:52:17;15.00;;;6.80;;
70899;SDS011;67902;52.154;5.430;2023-03-19T03:54:44;17.35;;;6.88;;
70899;SDS011;67902;52.154;5.430;2023-03-19T03:57:10;15.48;;;7.20;;
70899;SDS011;67902;52.154;5.430;2023-03-19T03:59:37;14.80;;;7.05;;
70899;SDS011;67902;52.154;5.430;2023-03-19T04:02:03;16.65;;;7.13;;
70899;SDS011;67902;52.154;5.430;2023-03-19T04:04:31;15.68;;;7.80;;
70899;SDS011;67902;52.154;5.430;2023-03-19T04:06:58;16.50;;;7.00;;
70899;SDS011;67902;52.154;5.430;2023-03-19T04:09:25;14.48;;;6.80;;
70899;SDS011;67902;52.154;5.430;2023-03-19T04:11:52;16.23;;;6.70;;
70899;SDS011;67902;52.154;5.430;2023-03-19T04:14:18;16.73;;;6.88;;
70899;SDS011;67902;52.154;5.430;2023-03-19T04:16:45;15.18;;;7.13;;
70899;SDS011;67902;52.154;5.430;2023-03-19T04:19:11;12.25;;;6.18;;
70899;SDS011;67902;52.154;5.430;2023-03-19T04:21:38;14.45;;;7.07;;
70899;SDS011;67902;52.154;5.430;2023-03-19T04:24:04;15.13;;;7.45;;
70899;SDS011;67902;52.154;5.430;2023-03-19T04:26:31;14.27;;;7.25;;
70899;SDS011;67902;52.154;5.430;2023-03-19T04:28:57;15.80;;;7.03;;
70899;SDS011;67902;52.154;5.430;2023-03-19T04:31:24;15.57;;;7.18;;
70899;SDS011;67902;52.154;5.430;2023-03-19T04:33:51;14.70;;;7.63;;
70899;SDS011;67902;52.154;5.430;2023-03-19T04:36:17;18.90;;;8.15;;
70899;SDS011;67902;52.154;5.430;2023-03-19T04:38:44;15.52;;;8.02;;
70899;SDS011;67902;52.154;5.430;2023-03-19T04:41:10;15.32;;;7.35;;
70899;SDS011;67902;52.154;5.430;2023-03-19T04:43:41;17.85;;;7.88;;
70899;SDS011;67902;52.154;5.430;2023-03-19T04:46:07;16.67;;;7.90;;
70899;SDS011;67902;52.154;5.430;2023-03-19T04:48:36;16.63;;;7.18;;
70899;SDS011;67902;52.154;5.430;2023-03-19T04:51:03;17.02;;;8.13;;
70899;SDS011;67902;52.154;5.430;2023-03-19T04:53:29;19.20;;;8.45;;
70899;SDS011;67902;52.154;5.430;2023-03-19T04:55:56;18.88;;;8.32;;
70899;SDS011;67902;52.154;5.430;2023-03-19T04:58:22;16.73;;;8.35;;
70899;SDS011;67902;52.154;5.430;2023-03-19T05:00:49;16.48;;;8.63;;
70899;SDS011;67902;52.154;5.430;2023-03-19T05:03:15;18.08;;;8.48;;
70899;SDS011;67902;52.154;5.430;2023-03-19T05:05:42;17.55;;;7.90;;
70899;SDS011;67902;52.154;5.430;2023-03-19T05:08:12;17.83;;;8.02;;
70899;SDS011;67902;52.154;5.430;2023-03-19T05:10:39;15.80;;;7.20;;
70899;SDS011;67902;52.154;5.430;2023-03-19T05:13:08;16.95;;;7.95;;
70899;SDS011;67902;52.154;5.430;2023-03-19T05:15:34;15.95;;;7.78;;
70899;SDS011;67902;52.154;5.430;2023-03-19T05:18:01;17.17;;;8.25;;
70899;SDS011;67902;52.154;5.430;2023-03-19T05:20:27;17.35;;;7.10;;
70899;SDS011;67902;52.154;5.430;2023-03-19T05:22:54;22.08;;;8.48;;
70899;SDS011;67902;52.154;5.430;2023-03-19T05:25:20;23.25;;;8.75;;
70899;SDS011;67902;52.154;5.430;2023-03-19T05:27:46;18.13;;;8.98;;
70899;SDS011;67902;52.154;5.430;2023-03-19T05:30:13;19.40;;;8.30;;
70899;SDS011;67902;52.154;5.430;2023-03-19T05:32:39;18.45;;;8.38;;
70899;SDS011;67902;52.154;5.430;2023-03-19T05:35:06;19.00;;;8.35;;
70899;SDS011;67902;52.154;5.430;2023-03-19T05:37:33;20.65;;;8.77;;
70899;SDS011;67902;52.154;5.430;2023-03-19T05:39:59;17.90;;;7.97;;
70899;SDS011;67902;52.154;5.430;2023-03-19T05:42:26;18.90;;;9.23;;
70899;SDS011;67902;52.154;5.430;2023-03-19T05:44:52;19.42;;;8.77;;
70899;SDS011;67902;52.154;5.430;2023-03-19T05:47:19;19.80;;;8.77;;
70899;SDS011;67902;52.154;5.430;2023-03-19T05:49:45;19.63;;;8.75;;
70899;SDS011;67902;52.154;5.430;2023-03-19T05:52:12;21.20;;;9.70;;
70899;SDS011;67902;52.154;5.430;2023-03-19T05:54:38;21.45;;;9.50;;
70899;SDS011;67902;52.154;5.430;2023-03-19T05:57:07;21.02;;;8.98;;
70899;SDS011;67902;52.154;5.430;2023-03-19T06:02:02;18.52;;;9.02;;
70899;SDS011;67902;52.154;5.430;2023-03-19T06:04:28;19.17;;;8.40;;
70899;SDS011;67902;52.154;5.430;2023-03-19T06:06:55;20.63;;;8.80;;
70899;SDS011;67902;52.154;5.430;2023-03-19T06:09:21;21.60;;;9.48;;
70899;SDS011;67902;52.154;5.430;2023-03-19T06:11:47;18.00;;;7.90;;
70899;SDS011;67902;52.154;5.430;2023-03-19T06:14:17;19.00;;;8.65;;
70899;SDS011;67902;52.154;5.430;2023-03-19T06:16:43;18.10;;;8.77;;
70899;SDS011;67902;52.154;5.430;2023-03-19T06:19:09;19.25;;;8.50;;
70899;SDS011;67902;52.154;5.430;2023-03-19T06:21:36;22.35;;;9.18;;
70899;SDS011;67902;52.154;5.430;2023-03-19T06:24:02;19.63;;;8.38;;
70899;SDS011;67902;52.154;5.430;2023-03-19T06:26:29;19.60;;;8.77;;
70899;SDS011;67902;52.154;5.430;2023-03-19T06:28:55;20.88;;;9.00;;
70899;SDS011;67902;52.154;5.430;2023-03-19T06:31:22;19.95;;;8.38;;
70899;SDS011;67902;52.154;5.430;2023-03-19T06:33:48;20.17;;;9.13;;
70899;SDS011;67902;52.154;5.430;2023-03-19T06:36:15;21.02;;;9.88;;
70899;SDS011;67902;52.154;5.430;2023-03-19T06:38:42;20.25;;;9.55;;
70899;SDS011;67902;52.154;5.430;2023-03-19T06:41:09;19.83;;;9.75;;
70899;SDS011;67902;52.154;5.430;2023-03-19T06:43:36;18.40;;;8.40;;
70899;SDS011;67902;52.154;5.430;2023-03-19T06:46:03;18.95;;;9.07;;
70899;SDS011;67902;52.154;5.430;2023-03-19T06:48:30;17.52;;;8.93;;
70899;SDS011;67902;52.154;5.430;2023-03-19T06:50:56;22.92;;;10.25;;
70899;SDS011;67902;52.154;5.430;2023-03-19T06:53:23;20.00;;;9.50;;
70899;SDS011;67902;52.154;5.430;2023-03-19T06:55:50;20.35;;;9.80;;
70899;SDS011;67902;52.154;5.430;2023-03-19T06:58:16;21.95;;;8.98;;
70899;SDS011;67902;52.154;5.430;2023-03-19T07:00:43;20.08;;;9.45;;
70899;SDS011;67902;52.154;5.430;2023-03-19T07:03:09;23.23;;;9.80;;
70899;SDS011;67902;52.154;5.430;2023-03-19T07:05:36;23.20;;;9.63;;
70899;SDS011;67902;52.154;5.430;2023-03-19T07:08:03;20.13;;;10.07;;
70899;SDS011;67902;52.154;5.430;2023-03-19T07:10:29;23.02;;;10.02;;
70899;SDS011;67902;52.154;5.430;2023-03-19T07:12:56;24.75;;;9.65;;
70899;SDS011;67902;52.154;5.430;2023-03-19T07:15:22;23.48;;;10.73;;
70899;SDS011;67902;52.154;5.430;2023-03-19T07:17:48;26.92;;;11.10;;
70899;SDS011;67902;52.154;5.430;2023-03-19T07:20:15;26.92;;;11.05;;
70899;SDS011;67902;52.154;5.430;2023-03-19T07:22:42;29.20;;;12.32;;
70899;SDS011;67902;52.154;5.430;2023-03-19T07:25:08;31.08;;;13.35;;
70899;SDS011;67902;52.154;5.430;2023-03-19T07:27:35;33.03;;;12.60;;
70899;SDS011;67902;52.154;5.430;2023-03-19T07:30:01;27.98;;;11.55;;
70899;SDS011;67902;52.154;5.430;2023-03-19T07:32:27;34.35;;;13.60;;
70899;SDS011;67902;52.154;5.430;2023-03-19T07:34:54;37.50;;;13.68;;
70899;SDS011;67902;52.154;5.430;2023-03-19T07:37:20;43.05;;;15.50;;
70899;SDS011;67902;52.154;5.430;2023-03-19T07:39:47;43.78;;;16.73;;
70899;SDS011;67902;52.154;5.430;2023-03-19T07:42:14;36.95;;;14.43;;
70899;SDS011;67902;52.154;5.430;2023-03-19T07:44:40;40.15;;;14.25;;
70899;SDS011;67902;52.154;5.430;2023-03-19T07:47:07;35.55;;;14.38;;
70899;SDS011;67902;52.154;5.430;2023-03-19T07:49:51;37.22;;;15.18;;
70899;SDS011;67902;52.154;5.430;2023-03-19T07:52:17;39.75;;;15.48;;
70899;SDS011;67902;52.154;5.430;2023-03-19T07:54:44;45.35;;;16.77;;
70899;SDS011;67902;52.154;5.430;2023-03-19T07:57:10;33.85;;;13.73;;
70899;SDS011;67902;52.154;5.430;2023-03-19T07:59:37;34.80;;;14.38;;
70899;SDS011;67902;52.154;5.430;2023-03-19T08:02:04;36.15;;;14.27;;
70899;SDS011;67902;52.154;5.430;2023-03-19T08:04:30;31.38;;;13.13;;
70899;SDS011;67902;52.154;5.430;2023-03-19T08:06:57;33.60;;;13.55;;
70899;SDS011;67902;52.154;5.430;2023-03-19T08:09:23;36.08;;;13.38;;
70899;SDS011;67902;52.154;5.430;2023-03-19T08:11:50;30.80;;;12.52;;
70899;SDS011;67902;52.154;5.430;2023-03-19T08:14:16;37.53;;;12.43;;
70899;SDS011;67902;52.154;5.430;2023-03-19T08:16:47;32.30;;;12.60;;
70899;SDS011;67902;52.154;5.430;2023-03-19T08:19:14;31.67;;;13.75;;
70899;SDS011;67902;52.154;5.430;2023-03-19T08:21:41;33.00;;;13.52;;
70899;SDS011;67902;52.154;5.430;2023-03-19T08:24:08;31.13;;;12.75;;
70899;SDS011;67902;52.154;5.430;2023-03-19T08:26:37;29.00;;;13.10;;
70899;SDS011;67902;52.154;5.430;2023-03-19T08:29:03;29.10;;;12.75;;
70899;SDS011;67902;52.154;5.430;2023-03-19T08:31:30;31.95;;;13.20;;
70899;SDS011;67902;52.154;5.430;2023-03-19T08:33:56;28.02;;;11.90;;
70899;SDS011;67902;52.154;5.430;2023-03-19T08:36:25;26.90;;;12.10;;
70899;SDS011;67902;52.154;5.430;2023-03-19T08:38:52;28.88;;;11.85;;
70899;SDS011;67902;52.154;5.430;2023-03-19T08:41:20;25.33;;;10.52;;
70899;SDS011;67902;52.154;5.430;2023-03-19T08:43:47;29.05;;;11.80;;
70899;SDS011;67902;52.154;5.430;2023-03-19T08:46:14;26.20;;;11.88;;
70899;SDS011;67902;52.154;5.430;2023-03-19T08:48:41;25.60;;;10.43;;
70899;SDS011;67902;52.154;5.430;2023-03-19T08:51:08;23.27;;;10.50;;
70899;SDS011;67902;52.154;5.430;2023-03-19T08:53:35;26.17;;;10.48;;
70899;SDS011;67902;52.154;5.430;2023-03-19T08:56:05;23.90;;;10.68;;
70899;SDS011;67902;52.154;5.430;2023-03-19T08:58:36;23.83;;;10.85;;
70899;SDS011;67902;52.154;5.430;2023-03-19T09:01:03;22.13;;;10.23;;
70899;SDS011;67902;52.154;5.430;2023-03-19T09:03:35;23.58;;;10.32;;
70899;SDS011;67902;52.154;5.430;2023-03-19T09:06:03;22.73;;;10.00;;
70899;SDS011;67902;52.154;5.430;2023-03-19T09:08:31;21.80;;;9.25;;
70899;SDS011;67902;52.154;5.430;2023-03-19T09:10:59;21.75;;;9.10;;
70899;SDS011;67902;52.154;5.430;2023-03-19T09:13:26;21.55;;;10.15;;
70899;SDS011;67902;52.154;5.430;2023-03-19T09:15:52;21.20;;;9.18;;
70899;SDS011;67902;52.154;5.430;2023-03-19T09:18:19;23.88;;;10.32;;
70899;SDS011;67902;52.154;5.430;2023-03-19T09:20:46;21.60;;;10.07;;
70899;SDS011;67902;52.154;5.430;2023-03-19T09:23:12;24.83;;;10.38;;
70899;SDS011;67902;52.154;5.430;2023-03-19T09:25:41;22.60;;;10.40;;
70899;SDS011;67902;52.154;5.430;2023-03-19T09:28:10;22.90;;;10.23;;
70899;SDS011;67902;52.154;5.430;2023-03-19T09:30:37;19.77;;;9.65;;
70899;SDS011;67902;52.154;5.430;2023-03-19T09:33:05;19.48;;;10.05;;
70899;SDS011;67902;52.154;5.430;2023-03-19T09:35:31;22.77;;;9.98;;
70899;SDS011;67902;52.154;5.430;2023-03-19T09:37:59;24.42;;;10.57;;
70899;SDS011;67902;52.154;5.430;2023-03-19T09:46:05;24.92;;;10.40;;
70899;SDS011;67902;52.154;5.430;2023-03-19T09:48:47;24.92;;;10.65;;
70899;SDS011;67902;52.154;5.430;2023-03-19T09:51:43;26.52;;;10.52;;
70899;SDS011;67902;52.154;5.430;2023-03-19T09:54:38;23.27;;;10.93;;
70899;SDS011;67902;52.154;5.430;2023-03-19T09:57:08;22.95;;;10.73;;
70899;SDS011;67902;52.154;5.430;2023-03-19T09:59:40;21.35;;;10.43;;
70899;SDS011;67902;52.154;5.430;2023-03-19T10:04:41;23.00;;;10.02;;
70899;SDS011;67902;52.154;5.430;2023-03-19T10:07:22;25.83;;;11.15;;
70899;SDS011;67902;52.154;5.430;2023-03-19T10:15:32;21.92;;;9.77;;
70899;SDS011;67902;52.154;5.430;2023-03-19T10:18:04;23.90;;;10.65;;
70899;SDS011;67902;52.154;5.430;2023-03-19T10:23:30;24.15;;;10.88;;
70899;SDS011;67902;52.154;5.430;2023-03-19T10:26:11;24.50;;;10.52;;
70899;SDS011;67902;52.154;5.430;2023-03-19T10:28:41;25.42;;;10.90;;
70899;SDS011;67902;52.154;5.430;2023-03-19T10:36:57;26.35;;;10.45;;
70899;SDS011;67902;52.154;5.430;2023-03-19T10:39:26;27.42;;;11.32;;
70899;SDS011;67902;52.154;5.430;2023-03-19T10:41:58;29.52;;;11.68;;
70899;SDS011;67902;52.154;5.430;2023-03-19T10:44:31;27.35;;;11.32;;
70899;SDS011;67902;52.154;5.430;2023-03-19T10:47:13;26.20;;;11.52;;
70899;SDS011;67902;52.154;5.430;2023-03-19T10:49:45;26.55;;;11.38;;
70899;SDS011;67902;52.154;5.430;2023-03-19T10:52:17;26.88;;;11.50;;
70899;SDS011;67902;52.154;5.430;2023-03-19T10:54:47;27.80;;;12.32;;
70899;SDS011;67902;52.154;5.430;2023-03-19T10:57:22;22.52;;;10.30;;
70899;SDS011;67902;52.154;5.430;2023-03-19T10:59:51;24.08;;;10.68;;
70899;SDS011;67902;52.154;5.430;2023-03-19T11:02:19;25.27;;;11.43;;
70899;SDS011;67902;52.154;5.430;2023-03-19T11:04:55;28.83;;;11.65;;
70899;SDS011;67902;52.154;5.430;2023-03-19T11:07:53;25.77;;;11.27;;
70899;SDS011;67902;52.154;5.430;2023-03-19T11:10:23;25.58;;;11.32;;
70899;SDS011;67902;52.154;5.430;2023-03-19T11:12:55;27.85;;;11.43;;
70899;SDS011;67902;52.154;5.430;2023-03-19T11:15:27;32.00;;;15.25;;
70899;SDS011;67902;52.154;5.430;2023-03-19T11:18:00;28.30;;;13.10;;
70899;SDS011;67902;52.154;5.430;2023-03-19T11:20:33;23.45;;;10.43;;
70899;SDS011;67902;52.154;5.430;2023-03-19T11:23:05;28.75;;;12.95;;
70899;SDS011;67902;52.154;5.430;2023-03-19T11:25:41;27.85;;;11.52;;
70899;SDS011;67902;52.154;5.430;2023-03-19T11:28:17;29.02;;;12.32;;
70899;SDS011;67902;52.154;5.430;2023-03-19T11:31:01;30.38;;;11.75;;
70899;SDS011;67902;52.154;5.430;2023-03-19T11:36:52;29.08;;;11.70;;
70899;SDS011;67902;52.154;5.430;2023-03-19T11:39:45;30.83;;;11.32;;
70899;SDS011;67902;52.154;5.430;2023-03-19T11:45:24;27.17;;;11.23;;
70899;SDS011;67902;52.154;5.430;2023-03-19T11:48:09;27.30;;;10.38;;
70899;SDS011;67902;52.154;5.430;2023-03-19T11:54:15;24.70;;;9.98;;
70899;SDS011;67902;52.154;5.430;2023-03-19T12:07:23;22.30;;;9.48;;
70899;SDS011;67902;52.154;5.430;2023-03-19T12:12:54;28.38;;;9.70;;
70899;SDS011;67902;52.154;5.430;2023-03-19T12:15:27;21.77;;;9.75;;
70899;SDS011;67902;52.154;5.430;2023-03-19T12:23:39;22.67;;;9.02;;
70899;SDS011;67902;52.154;5.430;2023-03-19T12:26:36;20.95;;;8.73;;
70899;SDS011;67902;52.154;5.430;2023-03-19T12:39:51;20.17;;;8.45;;
70899;SDS011;67902;52.154;5.430;2023-03-19T12:42:27;21.40;;;9.23;;
70899;SDS011;67902;52.154;5.430;2023-03-19T12:44:58;23.30;;;9.27;;
70899;SDS011;67902;52.154;5.430;2023-03-19T12:47:34;22.67;;;8.80;;
70899;SDS011;67902;52.154;5.430;2023-03-19T12:50:07;28.13;;;9.48;;
70899;SDS011;67902;52.154;5.430;2023-03-19T12:55:43;26.17;;;8.73;;
70899;SDS011;67902;52.154;5.430;2023-03-19T12:58:28;48.30;;;15.57;;
70899;SDS011;67902;52.154;5.430;2023-03-19T13:01:08;23.42;;;9.07;;
70899;SDS011;67902;52.154;5.430;2023-03-19T13:03:42;25.88;;;10.30;;
70899;SDS011;67902;52.154;5.430;2023-03-19T13:06:22;22.23;;;8.60;;
70899;SDS011;67902;52.154;5.430;2023-03-19T13:09:07;22.38;;;8.77;;
70899;SDS011;67902;52.154;5.430;2023-03-19T13:11:57;30.73;;;12.80;;
70899;SDS011;67902;52.154;5.430;2023-03-19T13:19:29;26.00;;;9.13;;
70899;SDS011;67902;52.154;5.430;2023-03-19T13:22:08;25.85;;;8.38;;
70899;SDS011;67902;52.154;5.430;2023-03-19T13:24:42;27.35;;;8.35;;
70899;SDS011;67902;52.154;5.430;2023-03-19T13:27:13;24.35;;;7.97;;
70899;SDS011;67902;52.154;5.430;2023-03-19T13:29:57;22.13;;;8.43;;
70899;SDS011;67902;52.154;5.430;2023-03-19T13:37:57;25.13;;;8.60;;
70899;SDS011;67902;52.154;5.430;2023-03-19T13:43:53;22.20;;;7.85;;
70899;SDS011;67902;52.154;5.430;2023-03-19T13:56:24;26.42;;;8.82;;
70899;SDS011;67902;52.154;5.430;2023-03-19T14:01:41;20.77;;;7.68;;
70899;SDS011;67902;52.154;5.430;2023-03-19T14:06:52;24.17;;;8.93;;
70899;SDS011;67902;52.154;5.430;2023-03-19T14:09:30;24.00;;;8.65;;
70899;SDS011;67902;52.154;5.430;2023-03-19T14:17:33;19.85;;;7.85;;
70899;SDS011;67902;52.154;5.430;2023-03-19T14:20:44;24.50;;;8.13;;
70899;SDS011;67902;52.154;5.430;2023-03-19T14:25:57;20.85;;;8.88;;
70899;SDS011;67902;52.154;5.430;2023-03-19T14:34:41;19.02;;;8.07;;
70899;SDS011;67902;52.154;5.430;2023-03-19T14:39:41;22.10;;;7.32;;
70899;SDS011;67902;52.154;5.430;2023-03-19T14:42:15;21.23;;;8.70;;
70899;SDS011;67902;52.154;5.430;2023-03-19T14:48:02;22.95;;;8.43;;
70899;SDS011;67902;52.154;5.430;2023-03-19T14:53:51;29.65;;;14.50;;
70899;SDS011;67902;52.154;5.430;2023-03-19T14:56:30;20.77;;;8.63;;
70899;SDS011;67902;52.154;5.430;2023-03-19T14:59:00;20.15;;;8.75;;
70899;SDS011;67902;52.154;5.430;2023-03-19T15:01:33;17.23;;;7.38;;
70899;SDS011;67902;52.154;5.430;2023-03-19T15:04:13;20.80;;;9.10;;
70899;SDS011;67902;52.154;5.430;2023-03-19T15:06:42;18.17;;;7.57;;
70899;SDS011;67902;52.154;5.430;2023-03-19T15:09:15;16.25;;;6.93;;
70899;SDS011;67902;52.154;5.430;2023-03-19T15:14:28;16.33;;;7.43;;
70899;SDS011;67902;52.154;5.430;2023-03-19T15:17:00;17.23;;;7.15;;
70899;SDS011;67902;52.154;5.430;2023-03-19T15:19:29;16.55;;;6.97;;
70899;SDS011;67902;52.154;5.430;2023-03-19T15:22:32;19.00;;;7.93;;
70899;SDS011;67902;52.154;5.430;2023-03-19T15:25:08;23.45;;;8.35;;
70899;SDS011;67902;52.154;5.430;2023-03-19T15:27:37;23.58;;;8.80;;
70899;SDS011;67902;52.154;5.430;2023-03-19T15:30:28;23.88;;;8.68;;
70899;SDS011;67902;52.154;5.430;2023-03-19T15:32:54;18.65;;;7.95;;
70899;SDS011;67902;52.154;5.430;2023-03-19T15:35:39;21.20;;;8.50;;
70899;SDS011;67902;52.154;5.430;2023-03-19T15:38:08;20.65;;;8.30;;
70899;SDS011;67902;52.154;5.430;2023-03-19T15:40:36;22.17;;;9.57;;
70899;SDS011;67902;52.154;5.430;2023-03-19T15:43:06;30.80;;;12.85;;
70899;SDS011;67902;52.154;5.430;2023-03-19T15:45:37;27.95;;;11.18;;
70899;SDS011;67902;52.154;5.430;2023-03-19T15:48:08;20.25;;;9.05;;
70899;SDS011;67902;52.154;5.430;2023-03-19T15:50:46;19.85;;;7.78;;
70899;SDS011;67902;52.154;5.430;2023-03-19T15:53:18;18.20;;;7.97;;
70899;SDS011;67902;52.154;5.430;2023-03-19T15:55:48;21.50;;;8.18;;
70899;SDS011;67902;52.154;5.430;2023-03-19T15:58:24;20.65;;;9.00;;
70899;SDS011;67902;52.154;5.430;2023-03-19T16:00:53;22.42;;;8.10;;
70899;SDS011;67902;52.154;5.430;2023-03-19T16:03:24;24.13;;;11.00;;
70899;SDS011;67902;52.154;5.430;2023-03-19T16:06:27;21.98;;;8.85;;
70899;SDS011;67902;52.154;5.430;2023-03-19T16:08:52;21.67;;;8.98;;
70899;SDS011;67902;52.154;5.430;2023-03-19T16:11:32;21.13;;;8.05;;
70899;SDS011;67902;52.154;5.430;2023-03-19T16:14:47;24.33;;;9.25;;
70899;SDS011;67902;52.154;5.430;2023-03-19T16:16:58;22.20;;;9.02;;
70899;SDS011;67902;52.154;5.430;2023-03-19T16:19:33;22.92;;;9.75;;
70899;SDS011;67902;52.154;5.430;2023-03-19T16:22:03;21.88;;;8.93;;
70899;SDS011;67902;52.154;5.430;2023-03-19T16:24:43;23.15;;;10.48;;
70899;SDS011;67902;52.154;5.430;2023-03-19T16:27:13;21.52;;;9.02;;
70899;SDS011;67902;52.154;5.430;2023-03-19T16:32:21;23.25;;;9.93;;
70899;SDS011;67902;52.154;5.430;2023-03-19T16:34:50;22.35;;;8.75;;
70899;SDS011;67902;52.154;5.430;2023-03-19T16:47:49;26.83;;;11.30;;
70899;SDS011;67902;52.154;5.430;2023-03-19T16:50:16;23.25;;;9.93;;
70899;SDS011;67902;52.154;5.430;2023-03-19T16:52:45;26.48;;;10.77;;
70899;SDS011;67902;52.154;5.430;2023-03-19T17:03:13;31.55;;;13.35;;
70899;SDS011;67902;52.154;5.430;2023-03-19T17:05:45;27.63;;;11.25;;
70899;SDS011;67902;52.154;5.430;2023-03-19T17:08:12;29.33;;;11.63;;
70899;SDS011;67902;52.154;5.430;2023-03-19T17:10:45;31.75;;;12.10;;
70899;SDS011;67902;52.154;5.430;2023-03-19T17:13:18;33.35;;;12.25;;
70899;SDS011;67902;52.154;5.430;2023-03-19T17:15:48;35.35;;;13.63;;
70899;SDS011;67902;52.154;5.430;2023-03-19T17:18:20;38.47;;;13.18;;